sensor_id;sensor_type;location;lat;lon;timestamp;P1;durP1;ratioP1;P2;durP2;ratioP2
45206;SDS011;30950;53.086;21.576;2023-03-04T00:00:30;26.40;;;15.48;;
45206;SDS011;30950;53.086;21.576;2023-03-04T00:03:18;28.20;;;16.05;;
45206;SDS011;30950;53.086;21.576;2023-03-04T00:05:45;32.42;;;17.40;;
45206;SDS011;30950;53.086;21.576;2023-03-04T00:08:13;31.15;;;16.02;;
45206;SDS011;30950;53.086;21.576;2023-03-04T00:10:40;36.90;;;17.20;;
45206;SDS011;30950;53.086;21.576;2023-03-04T00:13:07;32.08;;;16.33;;
45206;SDS011;30950;53.086;21.576;2023-03-04T00:15:35;38.03;;;16.50;;
45206;SDS011;30950;53.086;21.576;2023-03-04T00:18:02;28.30;;;15.82;;
45206;SDS011;30950;53.086;21.576;2023-03-04T00:20:30;32.75;;;16.95;;
45206;SDS011;30950;53.086;21.576;2023-03-04T00:22:57;28.75;;;15.48;;
45206;SDS011;30950;53.086;21.576;2023-03-04T00:25:24;28.13;;;15.05;;
45206;SDS011;30950;53.086;21.576;2023-03-04T00:27:52;34.53;;;17.52;;
45206;SDS011;30950;53.086;21.576;2023-03-04T00:30:19;33.88;;;17.60;;
45206;SDS011;30950;53.086;21.576;2023-03-04T00:32:46;28.10;;;15.38;;
45206;SDS011;30950;53.086;21.576;2023-03-04T00:35:14;32.75;;;17.20;;
45206;SDS011;30950;53.086;21.576;2023-03-04T00:37:42;30.98;;;15.23;;
45206;SDS011;30950;53.086;21.576;2023-03-04T00:40:09;37.50;;;19.15;;
45206;SDS011;30950;53.086;21.576;2023-03-04T00:42:37;28.45;;;13.85;;
45206;SDS011;30950;53.086;21.576;2023-03-04T00:45:04;29.55;;;15.27;;
45206;SDS011;30950;53.086;21.576;2023-03-04T00:47:32;32.33;;;16.77;;
45206;SDS011;30950;53.086;21.576;2023-03-04T00:49:59;31.08;;;15.20;;
45206;SDS011;30950;53.086;21.576;2023-03-04T00:52:27;28.45;;;14.13;;
45206;SDS011;30950;53.086;21.576;2023-03-04T00:54:54;32.28;;;16.73;;
45206;SDS011;30950;53.086;21.576;2023-03-04T00:57:22;28.95;;;15.55;;
45206;SDS011;30950;53.086;21.576;2023-03-04T00:59:49;28.67;;;14.88;;
45206;SDS011;30950;53.086;21.576;2023-03-04T01:02:17;31.80;;;16.25;;
45206;SDS011;30950;53.086;21.576;2023-03-04T01:04:45;25.42;;;14.07;;
45206;SDS011;30950;53.086;21.576;2023-03-04T01:07:12;28.02;;;15.50;;
45206;SDS011;30950;53.086;21.576;2023-03-04T01:09:39;29.10;;;15.35;;
45206;SDS011;30950;53.086;21.576;2023-03-04T01:12:06;27.85;;;13.88;;
45206;SDS011;30950;53.086;21.576;2023-03-04T01:14:34;27.58;;;14.50;;
45206;SDS011;30950;53.086;21.576;2023-03-04T01:17:01;28.70;;;15.68;;
45206;SDS011;30950;53.086;21.576;2023-03-04T01:19:29;28.20;;;14.65;;
45206;SDS011;30950;53.086;21.576;2023-03-04T01:21:57;25.95;;;13.93;;
45206;SDS011;30950;53.086;21.576;2023-03-04T01:24:25;27.48;;;15.32;;
45206;SDS011;30950;53.086;21.576;2023-03-04T01:26:52;27.33;;;14.52;;
45206;SDS011;30950;53.086;21.576;2023-03-04T01:29:21;27.50;;;15.80;;
45206;SDS011;30950;53.086;21.576;2023-03-04T01:31:48;23.77;;;14.13;;
45206;SDS011;30950;53.086;21.576;2023-03-04T01:34:16;24.20;;;14.15;;
45206;SDS011;30950;53.086;21.576;2023-03-04T01:36:43;24.80;;;14.02;;
45206;SDS011;30950;53.086;21.576;2023-03-04T01:39:11;24.60;;;14.60;;
45206;SDS011;30950;53.086;21.576;2023-03-04T01:41:38;24.50;;;14.02;;
45206;SDS011;30950;53.086;21.576;2023-03-04T01:44:07;24.30;;;14.07;;
45206;SDS011;30950;53.086;21.576;2023-03-04T01:46:36;25.05;;;14.07;;
45206;SDS011;30950;53.086;21.576;2023-03-04T01:49:05;22.67;;;14.98;;
45206;SDS011;30950;53.086;21.576;2023-03-04T01:51:35;25.35;;;14.68;;
45206;SDS011;30950;53.086;21.576;2023-03-04T01:54:02;26.83;;;15.30;;
45206;SDS011;30950;53.086;21.576;2023-03-04T01:56:34;24.63;;;13.93;;
45206;SDS011;30950;53.086;21.576;2023-03-04T02:01:50;24.60;;;15.23;;
45206;SDS011;30950;53.086;21.576;2023-03-04T02:04:21;26.40;;;16.33;;
45206;SDS011;30950;53.086;21.576;2023-03-04T02:06:51;25.60;;;16.10;;
45206;SDS011;30950;53.086;21.576;2023-03-04T02:09:20;26.35;;;14.55;;
45206;SDS011;30950;53.086;21.576;2023-03-04T02:11:48;23.30;;;13.70;;
45206;SDS011;30950;53.086;21.576;2023-03-04T02:14:17;23.77;;;14.77;;
45206;SDS011;30950;53.086;21.576;2023-03-04T02:16:45;27.30;;;14.68;;
45206;SDS011;30950;53.086;21.576;2023-03-04T02:22:19;27.02;;;15.73;;
45206;SDS011;30950;53.086;21.576;2023-03-04T02:24:47;27.67;;;16.02;;
45206;SDS011;30950;53.086;21.576;2023-03-04T02:27:18;28.25;;;17.08;;
45206;SDS011;30950;53.086;21.576;2023-03-04T02:29:48;24.73;;;14.25;;
45206;SDS011;30950;53.086;21.576;2023-03-04T02:32:15;25.65;;;15.85;;
45206;SDS011;30950;53.086;21.576;2023-03-04T02:34:45;25.55;;;15.13;;
45206;SDS011;30950;53.086;21.576;2023-03-04T02:37:14;31.52;;;18.38;;
45206;SDS011;30950;53.086;21.576;2023-03-04T02:39:43;30.95;;;17.55;;
45206;SDS011;30950;53.086;21.576;2023-03-04T02:42:13;27.25;;;16.50;;
45206;SDS011;30950;53.086;21.576;2023-03-04T02:44:42;25.00;;;15.73;;
45206;SDS011;30950;53.086;21.576;2023-03-04T02:47:14;24.10;;;15.00;;
45206;SDS011;30950;53.086;21.576;2023-03-04T02:49:47;29.42;;;17.98;;
45206;SDS011;30950;53.086;21.576;2023-03-04T02:52:19;32.33;;;18.45;;
45206;SDS011;30950;53.086;21.576;2023-03-04T02:54:48;29.55;;;17.48;;
45206;SDS011;30950;53.086;21.576;2023-03-04T02:57:16;29.13;;;17.10;;
45206;SDS011;30950;53.086;21.576;2023-03-04T02:59:48;33.10;;;19.67;;
45206;SDS011;30950;53.086;21.576;2023-03-04T03:02:19;27.73;;;17.52;;
45206;SDS011;30950;53.086;21.576;2023-03-04T03:04:47;30.90;;;17.85;;
45206;SDS011;30950;53.086;21.576;2023-03-04T03:07:16;27.25;;;16.58;;
45206;SDS011;30950;53.086;21.576;2023-03-04T03:09:44;29.15;;;17.83;;
45206;SDS011;30950;53.086;21.576;2023-03-04T03:12:11;33.97;;;19.25;;
45206;SDS011;30950;53.086;21.576;2023-03-04T03:14:39;30.73;;;17.13;;
45206;SDS011;30950;53.086;21.576;2023-03-04T03:17:09;29.20;;;15.90;;
45206;SDS011;30950;53.086;21.576;2023-03-04T03:19:37;32.17;;;17.67;;
45206;SDS011;30950;53.086;21.576;2023-03-04T03:22:06;30.52;;;18.27;;
45206;SDS011;30950;53.086;21.576;2023-03-04T03:24:34;27.65;;;17.35;;
45206;SDS011;30950;53.086;21.576;2023-03-04T03:27:01;25.40;;;16.02;;
45206;SDS011;30950;53.086;21.576;2023-03-04T03:29:29;28.42;;;17.92;;
45206;SDS011;30950;53.086;21.576;2023-03-04T03:31:57;28.75;;;17.70;;
45206;SDS011;30950;53.086;21.576;2023-03-04T03:34:24;28.48;;;16.83;;
45206;SDS011;30950;53.086;21.576;2023-03-04T03:36:52;24.13;;;13.52;;
45206;SDS011;30950;53.086;21.576;2023-03-04T03:39:19;25.83;;;15.13;;
45206;SDS011;30950;53.086;21.576;2023-03-04T03:41:47;24.05;;;15.77;;
45206;SDS011;30950;53.086;21.576;2023-03-04T03:44:15;26.17;;;16.38;;
45206;SDS011;30950;53.086;21.576;2023-03-04T03:46:43;24.95;;;15.05;;
45206;SDS011;30950;53.086;21.576;2023-03-04T03:49:10;30.60;;;16.70;;
45206;SDS011;30950;53.086;21.576;2023-03-04T03:51:37;27.60;;;16.10;;
45206;SDS011;30950;53.086;21.576;2023-03-04T03:54:05;27.10;;;17.42;;
45206;SDS011;30950;53.086;21.576;2023-03-04T03:56:32;21.60;;;13.90;;
45206;SDS011;30950;53.086;21.576;2023-03-04T03:59:00;28.15;;;16.35;;
45206;SDS011;30950;53.086;21.576;2023-03-04T04:01:27;28.10;;;17.15;;
45206;SDS011;30950;53.086;21.576;2023-03-04T04:03:54;28.13;;;17.25;;
45206;SDS011;30950;53.086;21.576;2023-03-04T04:06:21;27.58;;;16.17;;
45206;SDS011;30950;53.086;21.576;2023-03-04T04:08:49;27.50;;;16.80;;
45206;SDS011;30950;53.086;21.576;2023-03-04T04:11:16;25.98;;;15.70;;
45206;SDS011;30950;53.086;21.576;2023-03-04T04:13:44;24.90;;;15.07;;
45206;SDS011;30950;53.086;21.576;2023-03-04T04:16:11;27.60;;;14.40;;
45206;SDS011;30950;53.086;21.576;2023-03-04T04:18:39;24.85;;;16.05;;
45206;SDS011;30950;53.086;21.576;2023-03-04T04:21:06;26.63;;;16.92;;
45206;SDS011;30950;53.086;21.576;2023-03-04T04:23:33;26.40;;;15.55;;
45206;SDS011;30950;53.086;21.576;2023-03-04T04:26:01;25.75;;;15.55;;
45206;SDS011;30950;53.086;21.576;2023-03-04T04:28:28;28.23;;;16.10;;
45206;SDS011;30950;53.086;21.576;2023-03-04T04:30:55;26.83;;;15.10;;
45206;SDS011;30950;53.086;21.576;2023-03-04T04:33:23;25.20;;;15.73;;
45206;SDS011;30950;53.086;21.576;2023-03-04T04:35:50;23.38;;;15.23;;
45206;SDS011;30950;53.086;21.576;2023-03-04T04:38:18;23.38;;;14.00;;
45206;SDS011;30950;53.086;21.576;2023-03-04T04:40:45;22.88;;;14.88;;
45206;SDS011;30950;53.086;21.576;2023-03-04T04:43:12;22.40;;;14.52;;
45206;SDS011;30950;53.086;21.576;2023-03-04T04:45:40;24.50;;;15.55;;
45206;SDS011;30950;53.086;21.576;2023-03-04T04:48:07;19.77;;;13.32;;
45206;SDS011;30950;53.086;21.576;2023-03-04T04:50:34;21.10;;;13.90;;
45206;SDS011;30950;53.086;21.576;2023-03-04T04:53:02;20.63;;;13.40;;
45206;SDS011;30950;53.086;21.576;2023-03-04T04:55:29;21.33;;;13.52;;
45206;SDS011;30950;53.086;21.576;2023-03-04T04:57:57;20.92;;;13.98;;
45206;SDS011;30950;53.086;21.576;2023-03-04T05:00:24;19.63;;;14.18;;
45206;SDS011;30950;53.086;21.576;2023-03-04T05:02:52;21.90;;;12.18;;
45206;SDS011;30950;53.086;21.576;2023-03-04T05:05:19;20.58;;;13.93;;
45206;SDS011;30950;53.086;21.576;2023-03-04T05:07:46;21.88;;;13.45;;
45206;SDS011;30950;53.086;21.576;2023-03-04T05:10:13;25.52;;;13.13;;
45206;SDS011;30950;53.086;21.576;2023-03-04T05:12:42;20.50;;;12.07;;
45206;SDS011;30950;53.086;21.576;2023-03-04T05:15:10;20.58;;;11.43;;
45206;SDS011;30950;53.086;21.576;2023-03-04T05:17:37;23.33;;;12.82;;
45206;SDS011;30950;53.086;21.576;2023-03-04T05:20:05;21.20;;;12.93;;
45206;SDS011;30950;53.086;21.576;2023-03-04T05:22:33;22.02;;;11.95;;
45206;SDS011;30950;53.086;21.576;2023-03-04T05:25:00;22.75;;;12.27;;
45206;SDS011;30950;53.086;21.576;2023-03-04T05:27:28;26.75;;;13.93;;
45206;SDS011;30950;53.086;21.576;2023-03-04T05:29:55;20.52;;;11.88;;
45206;SDS011;30950;53.086;21.576;2023-03-04T05:32:25;22.13;;;12.90;;
45206;SDS011;30950;53.086;21.576;2023-03-04T05:34:53;18.27;;;10.07;;
45206;SDS011;30950;53.086;21.576;2023-03-04T05:37:21;18.55;;;12.02;;
45206;SDS011;30950;53.086;21.576;2023-03-04T05:39:48;21.73;;;12.93;;
45206;SDS011;30950;53.086;21.576;2023-03-04T05:42:15;22.40;;;13.77;;
45206;SDS011;30950;53.086;21.576;2023-03-04T05:44:42;22.45;;;12.10;;
45206;SDS011;30950;53.086;21.576;2023-03-04T05:47:10;19.50;;;11.75;;
45206;SDS011;30950;53.086;21.576;2023-03-04T05:49:37;22.77;;;12.90;;
45206;SDS011;30950;53.086;21.576;2023-03-04T05:52:04;24.95;;;13.50;;
45206;SDS011;30950;53.086;21.576;2023-03-04T05:54:32;20.95;;;11.80;;
45206;SDS011;30950;53.086;21.576;2023-03-04T05:56:59;18.83;;;12.80;;
45206;SDS011;30950;53.086;21.576;2023-03-04T05:59:27;20.92;;;12.48;;
45206;SDS011;30950;53.086;21.576;2023-03-04T06:01:55;20.63;;;11.70;;
45206;SDS011;30950;53.086;21.576;2023-03-04T06:04:22;16.35;;;10.80;;
45206;SDS011;30950;53.086;21.576;2023-03-04T06:06:50;24.55;;;13.05;;
45206;SDS011;30950;53.086;21.576;2023-03-04T06:09:17;19.80;;;11.25;;
45206;SDS011;30950;53.086;21.576;2023-03-04T06:11:46;19.60;;;11.85;;
45206;SDS011;30950;53.086;21.576;2023-03-04T06:14:14;19.67;;;12.23;;
45206;SDS011;30950;53.086;21.576;2023-03-04T06:16:41;20.10;;;11.32;;
45206;SDS011;30950;53.086;21.576;2023-03-04T06:19:08;18.73;;;12.23;;
45206;SDS011;30950;53.086;21.576;2023-03-04T06:21:36;19.27;;;9.85;;
45206;SDS011;30950;53.086;21.576;2023-03-04T06:24:03;24.58;;;11.95;;
45206;SDS011;30950;53.086;21.576;2023-03-04T06:26:31;23.33;;;13.25;;
45206;SDS011;30950;53.086;21.576;2023-03-04T06:28:58;20.67;;;11.32;;
45206;SDS011;30950;53.086;21.576;2023-03-04T06:31:25;27.55;;;13.65;;
45206;SDS011;30950;53.086;21.576;2023-03-04T06:33:52;24.52;;;12.88;;
45206;SDS011;30950;53.086;21.576;2023-03-04T06:36:20;22.85;;;13.05;;
45206;SDS011;30950;53.086;21.576;2023-03-04T06:38:47;22.00;;;12.25;;
45206;SDS011;30950;53.086;21.576;2023-03-04T06:41:15;19.70;;;11.60;;
45206;SDS011;30950;53.086;21.576;2023-03-04T06:43:42;26.02;;;12.75;;
45206;SDS011;30950;53.086;21.576;2023-03-04T06:46:09;22.67;;;12.55;;
45206;SDS011;30950;53.086;21.576;2023-03-04T06:48:37;23.33;;;12.13;;
45206;SDS011;30950;53.086;21.576;2023-03-04T06:51:05;21.42;;;11.52;;
45206;SDS011;30950;53.086;21.576;2023-03-04T06:53:33;16.98;;;10.82;;
45206;SDS011;30950;53.086;21.576;2023-03-04T06:56:01;19.08;;;11.68;;
45206;SDS011;30950;53.086;21.576;2023-03-04T06:58:29;22.20;;;10.55;;
45206;SDS011;30950;53.086;21.576;2023-03-04T07:00:56;23.08;;;11.50;;
45206;SDS011;30950;53.086;21.576;2023-03-04T07:03:23;25.08;;;13.05;;
45206;SDS011;30950;53.086;21.576;2023-03-04T07:05:51;20.40;;;11.18;;
45206;SDS011;30950;53.086;21.576;2023-03-04T07:08:18;24.23;;;13.10;;
45206;SDS011;30950;53.086;21.576;2023-03-04T07:10:47;22.15;;;12.52;;
45206;SDS011;30950;53.086;21.576;2023-03-04T07:13:15;30.55;;;16.10;;
45206;SDS011;30950;53.086;21.576;2023-03-04T07:15:42;20.67;;;12.88;;
45206;SDS011;30950;53.086;21.576;2023-03-04T07:18:09;33.63;;;19.20;;
45206;SDS011;30950;53.086;21.576;2023-03-04T07:20:37;32.17;;;16.98;;
45206;SDS011;30950;53.086;21.576;2023-03-04T07:23:04;21.25;;;11.63;;
45206;SDS011;30950;53.086;21.576;2023-03-04T07:25:32;25.45;;;16.35;;
45206;SDS011;30950;53.086;21.576;2023-03-04T07:27:59;21.80;;;11.15;;
45206;SDS011;30950;53.086;21.576;2023-03-04T07:30:26;26.15;;;12.55;;
45206;SDS011;30950;53.086;21.576;2023-03-04T07:32:56;21.85;;;11.52;;
45206;SDS011;30950;53.086;21.576;2023-03-04T07:35:24;21.92;;;11.07;;
45206;SDS011;30950;53.086;21.576;2023-03-04T07:37:51;18.95;;;10.82;;
45206;SDS011;30950;53.086;21.576;2023-03-04T07:40:19;22.63;;;12.82;;
45206;SDS011;30950;53.086;21.576;2023-03-04T07:42:50;22.35;;;11.30;;
45206;SDS011;30950;53.086;21.576;2023-03-04T07:45:19;24.88;;;12.23;;
45206;SDS011;30950;53.086;21.576;2023-03-04T07:47:47;21.63;;;10.40;;
45206;SDS011;30950;53.086;21.576;2023-03-04T07:50:15;19.17;;;10.02;;
45206;SDS011;30950;53.086;21.576;2023-03-04T07:52:44;18.38;;;10.50;;
45206;SDS011;30950;53.086;21.576;2023-03-04T07:55:14;22.85;;;11.88;;
45206;SDS011;30950;53.086;21.576;2023-03-04T07:57:42;16.67;;;9.95;;
45206;SDS011;30950;53.086;21.576;2023-03-04T08:00:12;23.42;;;12.00;;
45206;SDS011;30950;53.086;21.576;2023-03-04T08:02:41;38.45;;;21.48;;
45206;SDS011;30950;53.086;21.576;2023-03-04T08:05:09;27.60;;;12.88;;
45206;SDS011;30950;53.086;21.576;2023-03-04T08:07:36;17.13;;;9.35;;
45206;SDS011;30950;53.086;21.576;2023-03-04T08:10:03;25.08;;;13.70;;
45206;SDS011;30950;53.086;21.576;2023-03-04T08:12:31;19.15;;;10.02;;
45206;SDS011;30950;53.086;21.576;2023-03-04T08:14:59;22.67;;;11.13;;
45206;SDS011;30950;53.086;21.576;2023-03-04T08:17:27;15.07;;;10.52;;
45206;SDS011;30950;53.086;21.576;2023-03-04T08:19:55;21.50;;;9.40;;
45206;SDS011;30950;53.086;21.576;2023-03-04T08:22:23;19.17;;;12.45;;
45206;SDS011;30950;53.086;21.576;2023-03-04T08:24:50;20.95;;;11.05;;
45206;SDS011;30950;53.086;21.576;2023-03-04T08:27:17;20.05;;;10.73;;
45206;SDS011;30950;53.086;21.576;2023-03-04T08:29:45;18.33;;;9.48;;
45206;SDS011;30950;53.086;21.576;2023-03-04T08:32:13;22.63;;;10.30;;
45206;SDS011;30950;53.086;21.576;2023-03-04T08:34:40;19.67;;;9.70;;
45206;SDS011;30950;53.086;21.576;2023-03-04T08:37:08;24.08;;;13.45;;
45206;SDS011;30950;53.086;21.576;2023-03-04T08:39:35;20.92;;;10.30;;
45206;SDS011;30950;53.086;21.576;2023-03-04T08:42:03;19.63;;;9.35;;
45206;SDS011;30950;53.086;21.576;2023-03-04T08:44:30;19.25;;;9.77;;
45206;SDS011;30950;53.086;21.576;2023-03-04T08:46:58;18.27;;;9.18;;
45206;SDS011;30950;53.086;21.576;2023-03-04T08:49:25;18.55;;;9.82;;
45206;SDS011;30950;53.086;21.576;2023-03-04T08:51:52;21.38;;;9.85;;
45206;SDS011;30950;53.086;21.576;2023-03-04T08:54:19;20.45;;;9.90;;
45206;SDS011;30950;53.086;21.576;2023-03-04T08:56:47;19.58;;;9.27;;
45206;SDS011;30950;53.086;21.576;2023-03-04T08:59:14;21.75;;;10.15;;
45206;SDS011;30950;53.086;21.576;2023-03-04T09:01:41;18.38;;;9.25;;
45206;SDS011;30950;53.086;21.576;2023-03-04T09:04:09;17.08;;;10.52;;
45206;SDS011;30950;53.086;21.576;2023-03-04T09:06:36;22.38;;;9.63;;
45206;SDS011;30950;53.086;21.576;2023-03-04T09:09:03;18.08;;;9.27;;
45206;SDS011;30950;53.086;21.576;2023-03-04T09:11:31;20.83;;;10.95;;
45206;SDS011;30950;53.086;21.576;2023-03-04T09:13:58;23.98;;;9.82;;
45206;SDS011;30950;53.086;21.576;2023-03-04T09:16:26;17.23;;;10.65;;
45206;SDS011;30950;53.086;21.576;2023-03-04T09:18:53;17.60;;;10.05;;
45206;SDS011;30950;53.086;21.576;2023-03-04T09:21:21;27.67;;;11.45;;
45206;SDS011;30950;53.086;21.576;2023-03-04T09:23:49;20.13;;;10.82;;
45206;SDS011;30950;53.086;21.576;2023-03-04T09:26:24;22.73;;;12.82;;
45206;SDS011;30950;53.086;21.576;2023-03-04T09:28:53;21.00;;;9.73;;
45206;SDS011;30950;53.086;21.576;2023-03-04T09:31:23;47.13;;;20.20;;
45206;SDS011;30950;53.086;21.576;2023-03-04T09:33:51;97.38;;;41.80;;
45206;SDS011;30950;53.086;21.576;2023-03-04T09:36:20;36.88;;;16.88;;
45206;SDS011;30950;53.086;21.576;2023-03-04T09:38:47;96.28;;;40.92;;
45206;SDS011;30950;53.086;21.576;2023-03-04T09:41:17;24.90;;;11.98;;
45206;SDS011;30950;53.086;21.576;2023-03-04T09:43:51;30.88;;;14.15;;
45206;SDS011;30950;53.086;21.576;2023-03-04T09:46:30;19.63;;;10.05;;
45206;SDS011;30950;53.086;21.576;2023-03-04T09:49:03;13.77;;;6.45;;
45206;SDS011;30950;53.086;21.576;2023-03-04T09:57:20;12.25;;;4.50;;
45206;SDS011;30950;53.086;21.576;2023-03-04T10:00:03;11.23;;;3.90;;
45206;SDS011;30950;53.086;21.576;2023-03-04T10:05:37;12.75;;;6.78;;
45206;SDS011;30950;53.086;21.576;2023-03-04T10:08:18;8.50;;;3.67;;
45206;SDS011;30950;53.086;21.576;2023-03-04T10:10:56;9.45;;;4.57;;
45206;SDS011;30950;53.086;21.576;2023-03-04T10:16:38;8.68;;;3.17;;
45206;SDS011;30950;53.086;21.576;2023-03-04T10:19:21;7.55;;;2.55;;
45206;SDS011;30950;53.086;21.576;2023-03-04T10:21:51;8.75;;;2.65;;
45206;SDS011;30950;53.086;21.576;2023-03-04T10:24:19;7.95;;;2.88;;
45206;SDS011;30950;53.086;21.576;2023-03-04T10:26:51;10.18;;;3.00;;
45206;SDS011;30950;53.086;21.576;2023-03-04T10:29:29;4.13;;;2.28;;
45206;SDS011;30950;53.086;21.576;2023-03-04T10:31:58;7.60;;;2.80;;
45206;SDS011;30950;53.086;21.576;2023-03-04T10:34:26;11.13;;;3.10;;
45206;SDS011;30950;53.086;21.576;2023-03-04T10:37:04;9.55;;;2.65;;
45206;SDS011;30950;53.086;21.576;2023-03-04T10:39:37;6.95;;;2.65;;
45206;SDS011;30950;53.086;21.576;2023-03-04T10:42:21;5.10;;;2.33;;
45206;SDS011;30950;53.086;21.576;2023-03-04T10:44:56;4.40;;;2.10;;
45206;SDS011;30950;53.086;21.576;2023-03-04T10:47:27;8.65;;;2.60;;
45206;SDS011;30950;53.086;21.576;2023-03-04T10:49:56;7.88;;;2.67;;
45206;SDS011;30950;53.086;21.576;2023-03-04T10:52:29;6.78;;;2.42;;
45206;SDS011;30950;53.086;21.576;2023-03-04T10:55:05;5.50;;;2.63;;
45206;SDS011;30950;53.086;21.576;2023-03-04T10:57:43;9.98;;;2.95;;
45206;SDS011;30950;53.086;21.576;2023-03-04T11:03:13;7.43;;;3.17;;
45206;SDS011;30950;53.086;21.576;2023-03-04T11:05:50;9.70;;;2.75;;
45206;SDS011;30950;53.086;21.576;2023-03-04T11:08:29;4.47;;;2.13;;
45206;SDS011;30950;53.086;21.576;2023-03-04T11:10:56;6.32;;;2.50;;
45206;SDS011;30950;53.086;21.576;2023-03-04T11:13:24;4.30;;;2.20;;
45206;SDS011;30950;53.086;21.576;2023-03-04T11:21:00;4.88;;;2.10;;
45206;SDS011;30950;53.086;21.576;2023-03-04T11:26:18;8.05;;;2.70;;
45206;SDS011;30950;53.086;21.576;2023-03-04T11:29:04;6.78;;;2.38;;
45206;SDS011;30950;53.086;21.576;2023-03-04T11:32:14;8.75;;;3.20;;
45206;SDS011;30950;53.086;21.576;2023-03-04T11:37:18;6.68;;;2.10;;
45206;SDS011;30950;53.086;21.576;2023-03-04T11:40:10;5.55;;;2.60;;
45206;SDS011;30950;53.086;21.576;2023-03-04T11:42:44;6.50;;;3.22;;
45206;SDS011;30950;53.086;21.576;2023-03-04T11:50:56;7.47;;;2.38;;
45206;SDS011;30950;53.086;21.576;2023-03-04T11:56:35;4.65;;;2.22;;
45206;SDS011;30950;53.086;21.576;2023-03-04T12:27:00;4.80;;;1.80;;
45206;SDS011;30950;53.086;21.576;2023-03-04T12:32:23;6.45;;;2.53;;
45206;SDS011;30950;53.086;21.576;2023-03-04T12:35:03;3.67;;;2.13;;
45206;SDS011;30950;53.086;21.576;2023-03-04T12:49:45;22.48;;;3.17;;
45206;SDS011;30950;53.086;21.576;2023-03-04T12:52:31;7.32;;;2.50;;
45206;SDS011;30950;53.086;21.576;2023-03-04T12:55:16;4.80;;;2.20;;
45206;SDS011;30950;53.086;21.576;2023-03-04T12:57:47;4.40;;;1.80;;
45206;SDS011;30950;53.086;21.576;2023-03-04T13:03:24;2.40;;;1.40;;
45206;SDS011;30950;53.086;21.576;2023-03-04T13:06:04;5.35;;;1.42;;
45206;SDS011;30950;53.086;21.576;2023-03-04T13:16:46;6.90;;;2.80;;
45206;SDS011;30950;53.086;21.576;2023-03-04T13:22:28;6.97;;;3.03;;
45206;SDS011;30950;53.086;21.576;2023-03-04T13:24:56;17.85;;;7.75;;
45206;SDS011;30950;53.086;21.576;2023-03-04T13:27:44;3.45;;;2.15;;
45206;SDS011;30950;53.086;21.576;2023-03-04T13:43:57;4.05;;;1.65;;
45206;SDS011;30950;53.086;21.576;2023-03-04T13:51:25;5.40;;;2.83;;
45206;SDS011;30950;53.086;21.576;2023-03-04T13:56:45;6.70;;;2.00;;
45206;SDS011;30950;53.086;21.576;2023-03-04T14:04:22;5.30;;;2.30;;
45206;SDS011;30950;53.086;21.576;2023-03-04T14:12:20;3.83;;;1.73;;
45206;SDS011;30950;53.086;21.576;2023-03-04T14:15:34;3.75;;;1.70;;
45206;SDS011;30950;53.086;21.576;2023-03-04T14:17:44;4.95;;;2.05;;
45206;SDS011;30950;53.086;21.576;2023-03-04T14:20:20;3.75;;;1.80;;
45206;SDS011;30950;53.086;21.576;2023-03-04T14:23:24;6.43;;;2.17;;
45206;SDS011;30950;53.086;21.576;2023-03-04T14:25:59;3.78;;;1.30;;
45206;SDS011;30950;53.086;21.576;2023-03-04T14:28:31;5.43;;;2.28;;
45206;SDS011;30950;53.086;21.576;2023-03-04T14:30:59;5.60;;;1.88;;
45206;SDS011;30950;53.086;21.576;2023-03-04T14:33:27;5.22;;;1.90;;
45206;SDS011;30950;53.086;21.576;2023-03-04T14:35:58;7.88;;;3.53;;
45206;SDS011;30950;53.086;21.576;2023-03-04T14:38:27;6.00;;;1.83;;
45206;SDS011;30950;53.086;21.576;2023-03-04T14:41:05;4.95;;;1.73;;
45206;SDS011;30950;53.086;21.576;2023-03-04T14:43:55;3.67;;;1.55;;
45206;SDS011;30950;53.086;21.576;2023-03-04T14:46:33;5.13;;;1.92;;
45206;SDS011;30950;53.086;21.576;2023-03-04T14:49:06;5.40;;;2.47;;
45206;SDS011;30950;53.086;21.576;2023-03-04T14:51:40;5.30;;;2.20;;
45206;SDS011;30950;53.086;21.576;2023-03-04T14:54:31;5.57;;;1.75;;
45206;SDS011;30950;53.086;21.576;2023-03-04T14:57:22;6.60;;;2.72;;
45206;SDS011;30950;53.086;21.576;2023-03-04T14:59:52;6.63;;;2.25;;
45206;SDS011;30950;53.086;21.576;2023-03-04T15:02:27;4.63;;;1.70;;
45206;SDS011;30950;53.086;21.576;2023-03-04T15:05:07;4.28;;;1.50;;
45206;SDS011;30950;53.086;21.576;2023-03-04T15:07:43;5.45;;;2.13;;
45206;SDS011;30950;53.086;21.576;2023-03-04T15:10:19;4.50;;;1.90;;
45206;SDS011;30950;53.086;21.576;2023-03-04T15:12:53;3.92;;;1.85;;
45206;SDS011;30950;53.086;21.576;2023-03-04T15:15:29;4.38;;;1.77;;
45206;SDS011;30950;53.086;21.576;2023-03-04T15:18:41;6.47;;;2.35;;
45206;SDS011;30950;53.086;21.576;2023-03-04T15:20:53;5.35;;;2.30;;
45206;SDS011;30950;53.086;21.576;2023-03-04T15:23:29;5.15;;;2.28;;
45206;SDS011;30950;53.086;21.576;2023-03-04T15:25:59;5.82;;;2.95;;
45206;SDS011;30950;53.086;21.576;2023-03-04T15:28:37;9.05;;;2.60;;
45206;SDS011;30950;53.086;21.576;2023-03-04T15:31:14;5.30;;;2.95;;
45206;SDS011;30950;53.086;21.576;2023-03-04T15:33:43;8.20;;;2.15;;
45206;SDS011;30950;53.086;21.576;2023-03-04T15:36:12;5.30;;;2.70;;
45206;SDS011;30950;53.086;21.576;2023-03-04T15:38:49;8.90;;;3.53;;
45206;SDS011;30950;53.086;21.576;2023-03-04T15:41:22;5.32;;;2.10;;
45206;SDS011;30950;53.086;21.576;2023-03-04T15:43:52;12.55;;;3.67;;
45206;SDS011;30950;53.086;21.576;2023-03-04T15:46:19;15.82;;;3.25;;
45206;SDS011;30950;53.086;21.576;2023-03-04T15:48:47;10.02;;;3.83;;
45206;SDS011;30950;53.086;21.576;2023-03-04T15:51:16;10.68;;;3.53;;
45206;SDS011;30950;53.086;21.576;2023-03-04T15:53:51;6.25;;;2.85;;
45206;SDS011;30950;53.086;21.576;2023-03-04T15:56:22;10.98;;;3.50;;
45206;SDS011;30950;53.086;21.576;2023-03-04T15:58:55;11.05;;;3.33;;
45206;SDS011;30950;53.086;21.576;2023-03-04T16:01:25;6.95;;;2.40;;
45206;SDS011;30950;53.086;21.576;2023-03-04T16:03:53;9.48;;;3.28;;
45206;SDS011;30950;53.086;21.576;2023-03-04T16:06:20;5.03;;;1.80;;
45206;SDS011;30950;53.086;21.576;2023-03-04T16:08:50;3.72;;;1.90;;
45206;SDS011;30950;53.086;21.576;2023-03-04T16:11:21;6.20;;;2.10;;
45206;SDS011;30950;53.086;21.576;2023-03-04T16:13:51;4.25;;;1.88;;
45206;SDS011;30950;53.086;21.576;2023-03-04T16:16:18;4.03;;;1.58;;
45206;SDS011;30950;53.086;21.576;2023-03-04T16:18:46;9.60;;;2.47;;
45206;SDS011;30950;53.086;21.576;2023-03-04T16:21:18;4.47;;;1.80;;
45206;SDS011;30950;53.086;21.576;2023-03-04T16:23:47;6.70;;;1.92;;
45206;SDS011;30950;53.086;21.576;2023-03-04T16:26:24;7.05;;;2.10;;
45206;SDS011;30950;53.086;21.576;2023-03-04T16:28:53;4.72;;;2.10;;
45206;SDS011;30950;53.086;21.576;2023-03-04T16:31:21;8.20;;;3.17;;
45206;SDS011;30950;53.086;21.576;2023-03-04T16:33:48;7.70;;;2.95;;
45206;SDS011;30950;53.086;21.576;2023-03-04T16:36:22;5.97;;;3.05;;
45206;SDS011;30950;53.086;21.576;2023-03-04T16:38:56;5.85;;;3.13;;
45206;SDS011;30950;53.086;21.576;2023-03-04T16:41:28;9.00;;;3.50;;